Alpine, AL (35014)

9:32 PM CDT on October 31, 2014 (GMT -0500)
Sycamore,Alabama | Change Station
CLOSE
Current Station
Personal Weather Station
Location: Sycamore, AL
Elevation: 552 ft
Nearby Weather Stations

Elev 552 ft 33.26 °N, 86.21 °W | Updated 51 minutes ago

Overcast
Overcast
44.6 °F
Feels Like 37 °F
N
19.7
Wind Variable Wind from NW
Gusts 19.7 mph

Today
High -- | Low -- °F
--% Chance of Precip.
Yesterday
High -- | Low -- °F
Precip. -- in
7:02 AM 5:53 PM
First Quarter, 61% visible
Pressure 30.10 in
Visibility 10.0 miles
Clouds Few 7000 ft
Mostly Cloudy 8000 ft
Windchill 37 °F
Dew Point 35 °F
Humidity 69%
Rainfall 0.06 in
Snow Depth Not available.
UV 0 out of 12
Pollen 1.90 out of 12
Air Quality Not available.
Flu Activity Not available.
METAR KANB 010153Z AUTO 33009G21KT 300V360 10SM FEW070 BKN080 07/01 A3008 RMK AO2 PK WND 33028/0100 RAE00 SLP191 P0001 T00670011 $

More Conditions Fewer Conditions

Pressure 30.10 in
Visibility 10.0 miles
Clouds Few 7000 ft
Mostly Cloudy 8000 ft
Windchill 37 °F
Dew Point 35 °F
Humidity 69%
Rainfall 0.06 in
Snow Depth Not available.
UV 0 out of 12
Pollen 1.90 out of 12
Air Quality Not available.
Flu Activity Not available.
METAR KANB 010153Z AUTO 33009G21KT 300V360 10SM FEW070 BKN080 07/01 A3008 RMK AO2 PK WND 33028/0100 RAE00 SLP191 P0001 T00670011 $

More Conditions Fewer Conditions

10-Day Weather Forecast

Almanac

Astronomy

Oct. 31, 2014 Rise Set
Actual Time
Civil Twilight
Nautical Twilight
Astronomical Twilight
Moon
Length of Visible Light
Length of Day
Tomorrow will be .
, % of the Moon is Illuminated

Today's Extremes

State Highs State Lows

Community

WunderPhotos

Upload Photos

1,766,823 photos uploaded!

WunderBlogs® & News

Nearby

Air Quality

  Air Quality AQ Index Pollutant
Not available.

Snow Depth

Station Depth Elevation

Earthquake Activity

City Distance Mag. Time & Date
Minimum magnitude displayed is 2.5.

Coastal Water Temperatures

Place Temperature

Nearby Weather Stations